Terminal Aerodrome Forecast
Issued by NWS Albany, NY

Home | Current Version | Previous Version | Text Only | Print | Product List | Glossary On
Versions: 1 2 3 4 5 6 7 8 9 10 11 12 13 14 15 16 17
648
FTUS41 KALY 201143
TAFPOU
TAF
KPOU 201143Z 2012/2112 19003KT P6SM VCSH SCT004 OVC012
      TEMPO 2012/2014 SCT012 OVC015
     FM201400 19012KT P6SM VCSH BKN015
      TEMPO 2014/2017 SCT010 SCT015 BKN035
     FM201700 31010G16KT P6SM SCT035
     FM210000 31005KT P6SM SKC=

USA.gov is the U.S. government's official web portal to all federal, state and local government web resources and services.